Time;durP1;ratioP1;P1;durP2;ratioP2;P2;SDS_P1;SDS_P2;PMS_P1;PMS_P2;Temp;Humidity;BMP_temperature;BMP_pressure;BME280_temperature;BME280_humidity;BME280_pressure;Samples;Min_cycle;Max_cycle;Signal;HPM_P1;HPM_P2
2022/09/21 00:00:52;;;;;;;2.70;0.85;;;9.10;81.10;;;;;;5038388;28;20047;-77
2022/09/21 00:03:17;;;;;;;1.40;0.98;;;9.10;81.00;;;;;;5043508;28;20135;-76
2022/09/21 00:05:43;;;;;;;1.60;1.23;;;9.00;81.20;;;;;;5043391;28;20033;-76
2022/09/21 00:08:10;;;;;;;2.33;1.35;;;9.00;81.20;;;;;;5044199;28;20154;-76
2022/09/21 00:10:35;;;;;;;2.40;1.20;;;8.90;81.40;;;;;;5039481;28;20032;-76
2022/09/21 00:13:04;;;;;;;3.55;1.20;;;8.90;81.50;;;;;;5055285;28;20029;-76
2022/09/21 00:15:30;;;;;;;4.35;1.25;;;8.90;81.50;;;;;;5039577;28;20047;-76
2022/09/21 00:17:56;;;;;;;2.00;1.02;;;8.90;81.70;;;;;;5041349;28;20032;-76
2022/09/21 00:20:23;;;;;;;2.35;1.20;;;9.00;81.80;;;;;;5039374;28;20124;-75
2022/09/21 00:22:49;;;;;;;2.65;1.10;;;9.00;81.80;;;;;;5043186;28;20487;-77
2022/09/21 00:25:15;;;;;;;1.23;1.10;;;9.00;81.80;;;;;;5042623;28;20032;-76
2022/09/21 00:27:40;;;;;;;1.42;1.13;;;8.90;81.80;;;;;;5073346;28;20060;-76
2022/09/21 00:30:06;;;;;;;1.10;1.00;;;8.90;81.90;;;;;;5057704;28;20028;-77
2022/09/21 00:32:33;;;;;;;1.10;1.00;;;8.90;82.00;;;;;;5040116;28;20058;-76
2022/09/21 00:35:02;;;;;;;1.80;1.20;;;8.90;82.10;;;;;;5039168;28;20124;-77
2022/09/21 00:37:27;;;;;;;1.45;1.05;;;8.90;82.10;;;;;;5039508;28;20667;-75
2022/09/21 00:39:53;;;;;;;1.92;0.93;;;8.90;82.10;;;;;;5043978;28;20041;-76
2022/09/21 00:42:26;;;;;;;2.15;1.10;;;8.90;82.10;;;;;;5075074;28;20035;-76
2022/09/21 00:44:51;;;;;;;3.63;1.42;;;8.90;82.30;;;;;;5043725;28;20503;-76
2022/09/21 00:47:43;;;;;;;2.42;1.08;;;9.00;82.30;;;;;;5076795;28;20033;-78
2022/09/21 00:50:12;;;;;;;1.30;1.10;;;8.90;82.40;;;;;;5041411;28;20084;-76
2022/09/21 00:52:41;;;;;;;1.42;1.30;;;8.90;82.20;;;;;;5042451;28;20676;-77
2022/09/21 00:55:16;;;;;;;1.52;1.30;;;8.90;82.30;;;;;;5041821;28;20492;-76
2022/09/21 00:57:42;;;;;;;2.45;1.15;;;8.90;82.50;;;;;;5023193;28;20044;-76
2022/09/21 01:00:08;;;;;;;2.35;1.13;;;8.90;82.50;;;;;;5053455;28;20034;-76
2022/09/21 01:02:35;;;;;;;3.20;1.30;;;8.90;82.60;;;;;;5038929;28;20036;-76
2022/09/21 01:05:01;;;;;;;3.28;1.30;;;8.90;82.60;;;;;;5043331;28;20029;-77
2022/09/21 01:07:28;;;;;;;1.20;1.10;;;8.90;82.60;;;;;;5051814;28;20449;-76
2022/09/21 01:09:57;;;;;;;2.47;1.30;;;8.90;82.60;;;;;;5026543;28;20063;-77
2022/09/21 01:13:00;;;;;;;1.20;1.10;;;8.80;82.80;;;;;;5038345;28;20036;-77
2022/09/21 01:15:46;;;;;;;2.47;1.38;;;8.80;83.10;;;;;;5053000;28;20454;-77
2022/09/21 01:18:23;;;;;;;1.70;1.08;;;8.80;83.20;;;;;;5052104;28;20040;-75
2022/09/21 01:21:07;;;;;;;1.35;1.25;;;8.80;83.30;;;;;;5075404;28;20795;-76
2022/09/21 01:23:42;;;;;;;1.33;1.20;;;8.80;83.40;;;;;;5038059;28;20053;-76
2022/09/21 01:26:28;;;;;;;1.23;1.08;;;8.80;83.50;;;;;;5070580;28;20033;-77
2022/09/21 01:29:23;;;;;;;2.20;1.75;;;8.90;83.40;;;;;;5061650;28;20109;-76
2022/09/21 01:32:01;;;;;;;1.42;1.25;;;8.90;83.50;;;;;;5057138;28;20028;-76
2022/09/21 01:34:42;;;;;;;1.40;1.10;;;8.90;83.40;;;;;;5031349;28;20075;-76
2022/09/21 01:37:11;;;;;;;1.48;1.38;;;8.90;83.60;;;;;;5022486;28;20041;-77
2022/09/21 01:39:37;;;;;;;1.15;0.90;;;8.90;83.40;;;;;;5020029;28;20106;-77
2022/09/21 01:42:02;;;;;;;1.77;1.10;;;8.90;83.30;;;;;;5031244;28;20032;-76
2022/09/21 01:44:32;;;;;;;3.35;1.33;;;8.90;83.40;;;;;;5029863;28;20109;-76
2022/09/21 01:46:59;;;;;;;4.32;1.27;;;8.90;83.30;;;;;;5040856;28;20071;-76
2022/09/21 01:49:29;;;;;;;1.40;1.30;;;9.00;83.40;;;;;;5059198;28;20052;-77
2022/09/21 01:51:57;;;;;;;1.25;1.15;;;8.90;83.50;;;;;;5038250;28;20091;-77
2022/09/21 01:54:27;;;;;;;1.20;1.02;;;8.90;83.60;;;;;;5031534;28;20066;-76
2022/09/21 01:57:03;;;;;;;1.20;1.10;;;8.90;83.60;;;;;;5020782;28;20945;-77
2022/09/21 01:59:41;;;;;;;0.70;0.70;;;8.90;84.20;;;;;;5042841;28;20044;-76
2022/09/21 02:02:35;;;;;;;2.08;0.80;;;8.90;83.70;;;;;;5057211;28;20028;-76
2022/09/21 02:05:01;;;;;;;1.65;1.15;;;8.90;83.70;;;;;;5073860;28;20503;-76
2022/09/21 02:07:26;;;;;;;1.25;0.90;;;8.80;83.50;;;;;;5041919;28;20041;-77
2022/09/21 02:09:53;;;;;;;0.70;0.70;;;8.80;83.40;;;;;;5038898;28;20056;-76
2022/09/21 02:12:19;;;;;;;1.45;0.88;;;8.80;83.60;;;;;;5021792;28;20080;-76
2022/09/21 02:14:44;;;;;;;2.22;1.17;;;8.80;83.80;;;;;;5004746;28;20037;-76
2022/09/21 02:17:28;;;;;;;1.55;1.00;;;8.80;83.80;;;;;;5034123;28;20086;-76
2022/09/21 02:20:08;;;;;;;15.27;2.63;;;8.80;84.00;;;;;;5072934;28;20048;-76
2022/09/21 02:22:50;;;;;;;4.25;1.33;;;8.80;83.80;;;;;;5056297;28;20036;-76
2022/09/21 02:25:17;;;;;;;;;;;8.70;83.90;;;;;;5042215;28;20388;-76
2022/09/21 02:28:00;;;;;;;1.95;1.40;;;8.80;83.70;;;;;;5053428;28;19920;-77
2022/09/21 02:30:26;;;;;;;1.77;1.23;;;8.80;83.80;;;;;;5058849;28;20036;-75
2022/09/21 02:33:11;;;;;;;1.80;1.15;;;8.80;83.80;;;;;;5040512;28;20024;-75
2022/09/21 02:36:08;;;;;;;2.85;1.33;;;8.80;84.20;;;;;;5041172;28;20032;-76
2022/09/21 02:38:43;;;;;;;1.45;0.95;;;8.80;84.00;;;;;;5066921;28;20033;-76
2022/09/21 02:41:19;;;;;;;1.77;1.00;;;8.80;83.90;;;;;;5070503;28;20050;-76
2022/09/21 02:43:51;;;;;;;1.17;1.08;;;8.80;83.80;;;;;;5042545;28;20056;-76
2022/09/21 02:46:20;;;;;;;1.38;1.00;;;8.80;83.80;;;;;;5038793;28;20036;-76
2022/09/21 02:48:51;;;;;;;1.52;1.10;;;8.80;83.90;;;;;;5040650;28;20039;-76
2022/09/21 02:51:27;;;;;;;0.80;0.80;;;8.80;83.80;;;;;;5037260;28;20036;-76
2022/09/21 02:53:52;;;;;;;1.00;0.90;;;8.80;83.80;;;;;;5005266;28;20033;-75
2022/09/21 02:56:18;;;;;;;1.00;0.90;;;8.80;83.90;;;;;;5060666;28;20051;-76
2022/09/21 02:58:46;;;;;;;2.63;0.90;;;8.80;84.00;;;;;;5055462;28;20549;-76
2022/09/21 03:01:12;;;;;;;5.70;1.15;;;8.80;84.00;;;;;;5051722;28;20040;-77
2022/09/21 03:03:37;;;;;;;1.55;0.95;;;8.80;83.80;;;;;;5039963;28;20646;-76
2022/09/21 03:06:03;;;;;;;2.28;0.80;;;8.80;83.80;;;;;;5034734;28;20044;-76
2022/09/21 03:08:29;;;;;;;1.90;0.88;;;8.80;83.90;;;;;;5053205;28;20326;-76
2022/09/21 03:10:55;;;;;;;1.20;0.95;;;8.80;83.80;;;;;;5036675;28;20051;-76
2022/09/21 03:13:20;;;;;;;2.53;1.10;;;8.80;84.00;;;;;;5026326;28;20124;-76
2022/09/21 03:15:46;;;;;;;1.48;0.90;;;8.80;84.00;;;;;;5046105;28;20177;-77
2022/09/21 03:18:11;;;;;;;1.30;1.10;;;8.80;84.00;;;;;;5042132;28;20032;-76
2022/09/21 03:20:44;;;;;;;1.73;1.20;;;8.80;84.10;;;;;;5040399;28;20070;-76
2022/09/21 03:23:10;;;;;;;1.42;1.00;;;8.80;84.10;;;;;;5071574;28;20101;-77
2022/09/21 03:25:36;;;;;;;1.15;1.02;;;8.80;84.20;;;;;;5046303;28;20036;-76
2022/09/21 03:28:02;;;;;;;1.27;1.17;;;8.80;84.10;;;;;;5073045;28;20396;-76
2022/09/21 03:30:28;;;;;;;1.30;1.20;;;8.80;84.20;;;;;;5056428;28;20044;-76
2022/09/21 03:32:53;;;;;;;1.50;1.30;;;8.80;84.20;;;;;;5057589;28;20258;-77
2022/09/21 03:35:20;;;;;;;1.55;1.17;;;8.80;84.30;;;;;;5056774;28;20086;-76
2022/09/21 03:37:46;;;;;;;1.60;1.10;;;8.90;84.30;;;;;;5027727;28;20048;-77
2022/09/21 03:40:11;;;;;;;2.42;0.95;;;8.80;84.20;;;;;;5068527;28;20033;-77
2022/09/21 03:42:40;;;;;;;1.83;1.30;;;8.80;84.30;;;;;;5040699;28;20106;-75
2022/09/21 03:45:06;;;;;;;3.15;1.60;;;8.80;84.40;;;;;;5043580;28;20435;-77
2022/09/21 03:47:31;;;;;;;2.53;1.80;;;8.80;84.30;;;;;;5056400;28;20029;-76
2022/09/21 03:49:57;;;;;;;3.70;2.20;;;8.80;84.30;;;;;;5041026;28;20150;-76
2022/09/21 03:52:23;;;;;;;2.15;1.60;;;8.80;84.30;;;;;;5057514;28;20043;-75
2022/09/21 03:54:48;;;;;;;1.83;1.58;;;8.70;84.20;;;;;;5037642;28;20329;-76
2022/09/21 03:57:14;;;;;;;1.45;1.27;;;8.80;84.30;;;;;;5042470;28;20545;-76
2022/09/21 03:59:40;;;;;;;3.50;1.55;;;8.70;84.30;;;;;;5040188;28;20514;-76
2022/09/21 04:02:05;;;;;;;2.85;1.10;;;8.70;84.40;;;;;;5057059;28;20681;-76
2022/09/21 04:04:31;;;;;;;2.40;1.05;;;8.70;84.40;;;;;;5044567;28;20082;-77
2022/09/21 04:06:57;;;;;;;1.83;1.00;;;8.70;84.40;;;;;;5026293;28;20055;-76
2022/09/21 04:09:23;;;;;;;2.63;1.20;;;8.70;84.50;;;;;;5039609;28;20131;-76
2022/09/21 04:11:48;;;;;;;2.70;1.33;;;8.70;84.50;;;;;;5042198;28;20215;-75
2022/09/21 04:14:14;;;;;;;3.28;1.20;;;8.70;84.50;;;;;;5071135;28;20111;-76
2022/09/21 04:16:39;;;;;;;2.63;1.20;;;8.70;85.20;;;;;;5056004;28;20068;-76
2022/09/21 04:19:05;;;;;;;2.00;1.30;;;8.60;84.40;;;;;;5040564;28;20086;-76
2022/09/21 04:21:31;;;;;;;1.55;1.02;;;8.60;84.40;;;;;;5037999;28;20096;-76
2022/09/21 04:23:57;;;;;;;1.77;1.20;;;8.60;84.50;;;;;;5058284;28;20032;-76
2022/09/21 04:26:27;;;;;;;4.82;1.80;;;8.60;84.60;;;;;;5042575;28;20447;-76
2022/09/21 04:28:53;;;;;;;2.88;1.42;;;8.60;84.60;;;;;;5086889;28;20485;-76
2022/09/21 04:31:19;;;;;;;3.03;1.30;;;8.60;84.50;;;;;;5054504;28;20058;-76
2022/09/21 04:33:48;;;;;;;3.28;1.30;;;8.60;84.40;;;;;;5076225;28;20492;-77
2022/09/21 04:36:14;;;;;;;3.65;1.60;;;8.60;84.60;;;;;;5047087;28;20040;-77
2022/09/21 04:38:39;;;;;;;3.45;1.88;;;8.60;84.60;;;;;;5059852;28;20054;-77
2022/09/21 04:41:05;;;;;;;3.08;1.73;;;8.60;84.70;;;;;;5037527;28;20035;-78
2022/09/21 04:43:31;;;;;;;5.18;1.35;;;8.50;85.40;;;;;;5069261;28;20024;-78
2022/09/21 04:45:56;;;;;;;3.10;1.40;;;8.50;84.70;;;;;;5037702;28;20033;-77
2022/09/21 04:48:22;;;;;;;2.50;1.73;;;8.60;84.80;;;;;;5042119;28;20841;-77
2022/09/21 04:50:48;;;;;;;3.20;1.70;;;8.60;84.90;;;;;;5054735;28;20066;-77
2022/09/21 04:53:14;;;;;;;2.58;1.23;;;8.60;84.90;;;;;;5053090;28;20039;-78
2022/09/21 04:55:39;;;;;;;3.13;1.27;;;8.60;84.90;;;;;;5034160;28;20043;-77
2022/09/21 04:58:05;;;;;;;3.30;1.27;;;8.60;84.90;;;;;;5057580;28;20586;-76
2022/09/21 05:00:30;;;;;;;2.33;1.67;;;8.60;84.90;;;;;;5055659;28;20044;-76
2022/09/21 05:02:57;;;;;;;4.85;2.80;;;8.60;84.90;;;;;;5047826;28;20036;-76
2022/09/21 05:05:22;;;;;;;1.95;1.73;;;8.60;84.80;;;;;;5057333;28;20119;-77
2022/09/21 05:07:48;;;;;;;3.72;1.85;;;8.50;84.70;;;;;;5070283;28;20123;-78
2022/09/21 05:10:13;;;;;;;3.70;1.45;;;8.50;84.80;;;;;;5075308;28;20089;-77
2022/09/21 05:12:42;;;;;;;2.65;1.50;;;8.50;84.90;;;;;;5075743;28;20459;-76
2022/09/21 05:15:09;;;;;;;3.40;1.90;;;8.50;84.90;;;;;;5044983;28;20043;-78
2022/09/21 05:17:34;;;;;;;3.58;1.90;;;8.50;85.00;;;;;;5058544;28;20115;-76
2022/09/21 05:20:00;;;;;;;2.63;1.55;;;8.50;85.00;;;;;;5038298;28;20036;-77
2022/09/21 05:22:26;;;;;;;3.05;1.70;;;8.50;85.00;;;;;;5028182;28;20543;-76
2022/09/21 05:24:52;;;;;;;4.30;1.65;;;8.50;85.10;;;;;;5040238;28;20024;-77
2022/09/21 05:27:17;;;;;;;4.13;2.08;;;8.50;85.10;;;;;;5038681;28;20043;-77
2022/09/21 05:29:43;;;;;;;2.78;1.80;;;8.50;85.00;;;;;;5056658;28;20025;-76
2022/09/21 05:32:15;;;;;;;4.85;1.95;;;8.50;85.10;;;;;;5034194;28;20033;-78
2022/09/21 05:34:56;;;;;;;2.88;1.17;;;8.50;85.20;;;;;;5065214;28;20518;-79
2022/09/21 05:37:39;;;;;;;2.92;1.90;;;8.50;85.30;;;;;;5053128;28;20081;-76
2022/09/21 05:40:05;;;;;;;4.20;1.75;;;8.50;85.20;;;;;;5054366;28;20279;-75
2022/09/21 05:42:32;;;;;;;3.00;1.38;;;8.50;85.20;;;;;;5053508;28;20048;-77
2022/09/21 05:44:58;;;;;;;6.05;1.30;;;8.50;85.20;;;;;;5074484;28;20036;-77
2022/09/21 05:47:48;;;;;;;2.60;1.17;;;8.50;85.30;;;;;;5039418;28;20025;-77
2022/09/21 05:50:34;;;;;;;3.05;1.33;;;8.50;85.60;;;;;;5075732;28;20762;-77
2022/09/21 05:53:28;;;;;;;3.22;1.20;;;8.50;85.50;;;;;;5071179;28;20032;-76
2022/09/21 05:55:55;;;;;;;2.85;1.17;;;8.40;85.50;;;;;;5037241;28;20036;-77
2022/09/21 05:58:35;;;;;;;2.50;1.23;;;8.50;85.50;;;;;;5039710;28;20523;-76
2022/09/21 06:01:12;;;;;;;4.80;1.60;;;8.50;85.60;;;;;;5059290;28;20025;-77
2022/09/21 06:03:37;;;;;;;1.90;1.35;;;8.40;85.50;;;;;;5045448;28;20032;-78
2022/09/21 06:06:03;;;;;;;5.18;1.90;;;8.40;85.50;;;;;;5059474;28;20031;-78
2022/09/21 06:08:28;;;;;;;2.95;1.30;;;8.40;85.50;;;;;;5059365;28;20044;-77
2022/09/21 06:10:54;;;;;;;4.20;1.42;;;8.40;85.60;;;;;;5062556;28;20040;-75
2022/09/21 06:13:20;;;;;;;2.90;1.40;;;8.50;85.60;;;;;;5042621;28;20028;-76
2022/09/21 06:15:45;;;;;;;2.72;1.83;;;8.50;85.60;;;;;;5040087;28;20055;-77
2022/09/21 06:18:11;;;;;;;3.30;1.55;;;8.60;85.70;;;;;;5039570;28;20025;-76
2022/09/21 06:20:37;;;;;;;5.22;2.70;;;8.60;85.70;;;;;;5059021;28;20082;-77
2022/09/21 06:23:06;;;;;;;10.73;2.85;;;8.60;85.70;;;;;;5057225;28;20039;-77
2022/09/21 06:25:32;;;;;;;3.83;2.30;;;8.50;85.60;;;;;;5059770;28;20566;-76
2022/09/21 06:28:04;;;;;;;7.28;3.33;;;8.60;85.70;;;;;;5040290;28;20576;-77
2022/09/21 06:30:33;;;;;;;7.55;3.22;;;8.60;85.80;;;;;;5057151;28;21099;-76
2022/09/21 06:32:59;;;;;;;5.20;2.90;;;8.60;85.70;;;;;;5027966;28;20040;-78
2022/09/21 06:35:25;;;;;;;7.43;3.17;;;8.70;85.80;;;;;;5059020;28;20043;-77
2022/09/21 06:37:51;;;;;;;15.55;2.83;;;8.70;85.80;;;;;;5056705;28;20032;-76
2022/09/21 06:40:16;;;;;;;3.90;2.33;;;8.80;85.80;;;;;;5050636;28;20407;-78
2022/09/21 06:42:42;;;;;;;4.72;2.50;;;8.80;85.80;;;;;;5040447;28;20051;-77
2022/09/21 06:45:08;;;;;;;5.28;2.70;;;8.80;85.80;;;;;;5054534;28;20064;-76
2022/09/21 06:47:33;;;;;;;9.20;3.25;;;8.80;85.80;;;;;;5038508;28;20046;-77
2022/09/21 06:49:59;;;;;;;5.60;2.90;;;8.90;85.80;;;;;;5058676;28;20582;-76
2022/09/21 06:52:24;;;;;;;5.90;2.97;;;8.90;85.80;;;;;;5059993;28;20048;-76
2022/09/21 06:54:50;;;;;;;7.38;3.78;;;8.90;85.90;;;;;;5050899;28;20428;-77
2022/09/21 06:57:15;;;;;;;10.38;4.22;;;8.90;85.80;;;;;;5024334;28;20025;-77
2022/09/21 06:59:41;;;;;;;19.83;8.48;;;9.00;85.90;;;;;;5059576;28;20029;-77
2022/09/21 07:02:08;;;;;;;15.05;6.72;;;9.00;85.80;;;;;;5076158;28;20057;-77
2022/09/21 07:04:33;;;;;;;20.58;6.90;;;9.00;85.70;;;;;;5049716;28;20035;-77
2022/09/21 07:07:00;;;;;;;12.73;6.82;;;9.00;85.80;;;;;;5041844;28;20524;-76
2022/09/21 07:09:25;;;;;;;14.55;6.32;;;9.00;85.80;;;;;;5043489;28;20032;-77
2022/09/21 07:11:51;;;;;;;21.38;8.40;;;9.10;85.90;;;;;;5039844;28;20032;-76
2022/09/21 07:14:16;;;;;;;15.07;7.20;;;9.10;85.90;;;;;;5073822;28;20038;-77
2022/09/21 07:16:42;;;;;;;30.40;11.18;;;9.10;85.90;;;;;;5025595;28;20035;-76
2022/09/21 07:19:07;;;;;;;21.67;8.77;;;9.10;85.90;;;;;;5060325;28;20021;-76
2022/09/21 07:21:33;;;;;;;13.32;7.10;;;9.20;86.00;;;;;;5056125;28;20047;-76
2022/09/21 07:23:59;;;;;;;13.07;7.07;;;9.20;85.90;;;;;;5045032;28;20051;-76
2022/09/21 07:26:24;;;;;;;19.23;7.47;;;9.30;85.90;;;;;;5056605;28;20652;-76
2022/09/21 07:28:50;;;;;;;19.20;7.70;;;9.30;86.00;;;;;;5071727;28;20140;-77
2022/09/21 07:31:15;;;;;;;12.90;6.80;;;9.30;85.80;;;;;;5042695;28;20036;-76
2022/09/21 07:33:42;;;;;;;11.90;6.57;;;9.30;85.80;;;;;;5041229;28;20032;-77
2022/09/21 07:36:11;;;;;;;9.38;5.70;;;9.30;85.90;;;;;;5041846;28;20115;-76
2022/09/21 07:38:40;;;;;;;10.70;5.72;;;9.40;85.90;;;;;;5043830;28;20507;-77
2022/09/21 07:41:07;;;;;;;12.07;6.18;;;9.50;86.00;;;;;;5042028;28;20521;-77
2022/09/21 07:43:32;;;;;;;14.48;5.60;;;9.50;85.90;;;;;;5027793;28;20071;-76
2022/09/21 07:46:00;;;;;;;19.02;6.68;;;9.50;85.80;;;;;;5056834;28;20487;-76
2022/09/21 07:48:25;;;;;;;9.65;5.20;;;9.60;85.80;;;;;;5070350;28;20093;-77
2022/09/21 07:50:51;;;;;;;8.25;4.97;;;9.60;85.80;;;;;;5045579;28;20124;-77
2022/09/21 07:53:16;;;;;;;12.50;5.20;;;9.70;85.80;;;;;;5089830;28;20123;-77
2022/09/21 07:55:42;;;;;;;11.32;4.82;;;9.80;85.80;;;;;;5059651;28;20560;-76
2022/09/21 08:00:52;;;;;;;10.98;5.07;;;9.90;86.10;;;;;;5058433;28;20902;-76
2022/09/21 08:03:18;;;;;;;15.02;5.88;;;10.00;85.40;;;;;;5071837;28;20119;-78
2022/09/21 08:05:43;;;;;;;12.43;5.18;;;10.10;85.30;;;;;;5056338;28;20034;-77
2022/09/21 08:08:09;;;;;;;12.07;4.75;;;10.10;85.10;;;;;;5041902;28;21230;-76
2022/09/21 08:10:34;;;;;;;9.10;4.53;;;10.20;85.00;;;;;;5037235;28;20032;-76
2022/09/21 08:13:00;;;;;;;11.70;4.85;;;10.30;85.00;;;;;;5043048;28;20235;-77
2022/09/21 08:15:26;;;;;;;9.10;4.90;;;10.30;84.90;;;;;;5041158;28;20032;-76
2022/09/21 08:17:52;;;;;;;15.23;4.93;;;10.40;84.90;;;;;;5073717;28;20044;-77
2022/09/21 08:20:18;;;;;;;9.70;5.07;;;10.50;84.80;;;;;;5041809;28;20090;-76
2022/09/21 08:22:43;;;;;;;9.77;4.13;;;10.60;84.80;;;;;;5056435;28;20236;-76
2022/09/21 08:25:12;;;;;;;11.35;5.65;;;10.80;84.80;;;;;;5040003;28;20029;-76
2022/09/21 08:27:38;;;;;;;8.95;4.25;;;10.90;84.60;;;;;;5056931;28;20640;-75
2022/09/21 08:30:05;;;;;;;7.72;4.82;;;11.00;84.40;;;;;;5055837;28;20028;-76
2022/09/21 08:32:31;;;;;;;11.77;6.80;;;11.10;84.30;;;;;;5053055;28;20870;-77
2022/09/21 08:34:56;;;;;;;11.15;5.45;;;11.20;84.30;;;;;;5058343;28;20037;-76
2022/09/21 08:37:22;;;;;;;18.80;9.02;;;11.40;84.20;;;;;;5054986;28;21430;-77
2022/09/21 08:39:47;;;;;;;13.15;7.55;;;11.60;84.00;;;;;;5071276;28;20047;-77
2022/09/21 08:42:15;;;;;;;12.43;5.68;;;11.80;83.80;;;;;;5069945;28;20545;-76
2022/09/21 08:44:55;;;;;;;11.38;6.22;;;11.90;83.50;;;;;;5073143;28;20665;-77
2022/09/21 08:47:33;;;;;;;11.90;4.80;;;12.10;83.40;;;;;;5039051;28;20737;-77
2022/09/21 08:49:59;;;;;;;9.13;3.90;;;12.30;83.00;;;;;;5040373;28;20043;-76
2022/09/21 08:52:24;;;;;;;6.65;4.30;;;12.40;82.80;;;;;;5035393;28;20048;-77
2022/09/21 08:54:49;;;;;;;9.70;6.18;;;12.60;82.40;;;;;;5054909;28;20032;-78
2022/09/21 08:57:15;;;;;;;10.27;5.78;;;12.70;82.30;;;;;;5070403;28;20028;-75
2022/09/21 08:59:45;;;;;;;9.32;6.53;;;12.90;82.30;;;;;;5052982;28;20361;-77
2022/09/21 09:02:31;;;;;;;10.57;6.45;;;13.10;81.90;;;;;;5036728;28;20036;-76
2022/09/21 09:05:51;;;;;;;8.20;4.82;;;13.10;80.50;;;;;;5071332;28;20032;-77
2022/09/21 09:08:26;;;;;;;5.85;3.60;;;13.10;80.10;;;;;;4992553;28;20030;-76
2022/09/21 09:11:16;;;;;;;7.32;4.25;;;13.10;80.50;;;;;;4997141;28;20068;-77
2022/09/21 09:14:10;;;;;;;6.68;4.40;;;13.20;80.90;;;;;;5013082;28;20036;-77
2022/09/21 09:16:52;;;;;;;3.67;3.00;;;13.30;80.20;;;;;;4999848;28;20026;-76
2022/09/21 09:19:30;;;;;;;;;;;13.40;80.50;;;;;;4985231;28;20060;-78
2022/09/21 09:21:56;;;;;;;5.80;3.08;;;13.50;80.60;;;;;;4998162;28;20429;-76
2022/09/21 09:24:33;;;;;;;3.33;2.40;;;13.80;80.60;;;;;;4965109;28;20072;-77
2022/09/21 09:27:05;;;;;;;3.42;2.15;;;14.00;80.40;;;;;;4993349;28;20045;-77
2022/09/21 09:29:41;;;;;;;3.67;2.60;;;14.20;80.30;;;;;;4981499;28;20220;-76
2022/09/21 09:32:14;;;;;;;2.42;1.75;;;14.50;79.50;;;;;;4995482;28;20041;-76
2022/09/21 09:34:43;;;;;;;3.75;2.40;;;14.70;79.20;;;;;;4982043;28;20203;-77
2022/09/21 09:37:13;;;;;;;1.90;1.50;;;14.90;78.60;;;;;;4982893;28;20065;-77
2022/09/21 09:39:40;;;;;;;3.00;1.73;;;15.00;78.20;;;;;;5046294;28;20101;-77
2022/09/21 09:42:08;;;;;;;3.42;2.80;;;15.30;78.30;;;;;;5072445;28;20040;-77
2022/09/21 09:44:53;;;;;;;2.63;1.83;;;15.40;77.40;;;;;;5073518;28;20055;-77
2022/09/21 09:47:37;;;;;;;2.25;1.63;;;15.50;77.20;;;;;;5073785;28;20049;-77
2022/09/21 09:50:13;;;;;;;2.85;1.42;;;15.80;77.00;;;;;;5076544;28;20036;-76
2022/09/21 09:52:39;;;;;;;1.98;1.50;;;16.10;76.70;;;;;;5055978;28;20086;-77
2022/09/21 09:55:25;;;;;;;3.90;1.40;;;16.30;75.80;;;;;;5056510;28;20032;-77
2022/09/21 09:57:50;;;;;;;2.72;1.52;;;16.40;74.70;;;;;;5043244;28;20476;-77
2022/09/21 10:00:19;;;;;;;3.88;1.55;;;16.50;74.80;;;;;;5028345;28;20118;-77
2022/09/21 10:02:48;;;;;;;3.05;1.00;;;16.70;74.50;;;;;;5053684;28;20491;-77
2022/09/21 10:05:24;;;;;;;2.25;1.33;;;16.90;74.30;;;;;;5087643;28;20621;-77
2022/09/21 10:07:50;;;;;;;3.05;1.88;;;17.20;74.20;;;;;;5055050;28;20054;-78
2022/09/21 10:10:28;;;;;;;2.42;1.02;;;17.40;73.70;;;;;;5042882;28;20032;-78
2022/09/21 10:12:54;;;;;;;2.03;1.25;;;17.60;73.50;;;;;;5077193;28;20032;-77
2022/09/21 10:15:19;;;;;;;2.33;1.17;;;17.90;73.10;;;;;;5057391;28;20036;-77
2022/09/21 10:17:46;;;;;;;1.45;0.80;;;18.10;72.40;;;;;;5058854;28;20036;-77
2022/09/21 10:20:19;;;;;;;3.03;0.90;;;18.20;71.80;;;;;;5072869;28;20155;-77
2022/09/21 10:22:46;;;;;;;3.25;0.98;;;18.40;71.80;;;;;;5060619;28;20062;-77
2022/09/21 10:25:14;;;;;;;1.42;0.80;;;18.60;71.70;;;;;;5064834;28;20548;-77
2022/09/21 10:27:42;;;;;;;2.20;1.10;;;18.90;71.60;;;;;;5065587;28;20040;-77
2022/09/21 10:30:31;;;;;;;1.45;1.10;;;19.20;71.10;;;;;;5063605;28;20043;-77
2022/09/21 10:32:57;;;;;;;1.70;0.77;;;19.50;69.50;;;;;;5048461;28;20025;-77
2022/09/21 10:35:23;;;;;;;2.03;1.05;;;19.70;69.50;;;;;;5064472;28;20123;-77
2022/09/21 10:38:07;;;;;;;0.98;0.88;;;19.90;68.40;;;;;;5064906;28;20059;-77
2022/09/21 10:40:35;;;;;;;1.38;1.05;;;19.90;67.90;;;;;;5079933;28;20160;-78
2022/09/21 10:43:00;;;;;;;2.35;1.02;;;20.10;67.90;;;;;;5052516;28;20090;-78
2022/09/21 10:45:28;;;;;;;2.28;0.70;;;20.30;67.70;;;;;;5060445;28;20040;-77
2022/09/21 10:48:07;;;;;;;1.33;0.70;;;20.50;67.30;;;;;;5037691;28;20461;-77
2022/09/21 10:50:43;;;;;;;0.95;0.63;;;20.70;65.70;;;;;;5042664;28;20048;-77
2022/09/21 10:53:08;;;;;;;3.42;0.70;;;20.80;66.00;;;;;;5090099;27;20036;-78
2022/09/21 10:55:48;;;;;;;1.00;0.68;;;21.00;66.10;;;;;;5063101;28;20037;-78
2022/09/21 10:58:13;;;;;;;1.23;1.00;;;21.20;64.70;;;;;;5060478;28;20028;-78
2022/09/21 11:00:48;;;;;;;0.93;0.70;;;21.40;65.00;;;;;;5075249;28;20059;-78
2022/09/21 11:03:38;;;;;;;2.28;0.80;;;21.60;64.10;;;;;;5063641;28;20063;-79
2022/09/21 11:06:25;;;;;;;1.45;0.70;;;21.80;61.20;;;;;;5053310;28;20116;-78
2022/09/21 11:09:01;;;;;;;1.30;0.85;;;21.90;61.90;;;;;;5075633;28;20040;-78
2022/09/21 11:11:47;;;;;;;2.55;0.70;;;22.00;62.40;;;;;;5057740;28;20040;-79
2022/09/21 11:14:41;;;;;;;1.13;0.50;;;22.10;61.50;;;;;;5050204;28;20044;-77
2022/09/21 11:17:21;;;;;;;1.35;0.63;;;22.40;61.40;;;;;;5074498;28;20132;-77
2022/09/21 11:19:50;;;;;;;1.10;0.60;;;22.60;60.70;;;;;;5059589;28;20056;-78
2022/09/21 11:22:36;;;;;;;0.70;0.70;;;22.70;60.40;;;;;;5075424;28;20393;-79
2022/09/21 11:25:21;;;;;;;1.35;0.70;;;22.80;58.80;;;;;;5074297;28;20112;-78
2022/09/21 11:27:48;;;;;;;1.80;0.40;;;23.00;59.50;;;;;;5060700;28;20126;-78
2022/09/21 11:30:15;;;;;;;1.15;0.57;;;23.20;59.00;;;;;;5043062;28;20044;-78
2022/09/21 11:33:18;;;;;;;2.25;0.65;;;23.30;58.30;;;;;;5059519;28;20101;-80
2022/09/21 11:36:01;;;;;;;0.55;0.55;;;23.30;56.60;;;;;;5075036;28;20032;-78
2022/09/21 11:38:53;;;;;;;0.95;0.80;;;23.20;57.20;;;;;;5043587;28;20123;-77
2022/09/21 11:41:43;;;;;;;0.95;0.50;;;23.40;56.80;;;;;;5041829;28;20513;-78
2022/09/21 11:44:24;;;;;;;1.00;0.60;;;23.50;55.30;;;;;;5074749;28;20058;-78
2022/09/21 11:47:12;;;;;;;0.88;0.60;;;23.40;55.50;;;;;;5074702;28;20085;-77
2022/09/21 11:49:49;;;;;;;2.63;0.75;;;23.30;56.70;;;;;;5053810;28;20054;-78
2022/09/21 11:52:37;;;;;;;4.50;0.98;;;23.40;56.20;;;;;;5073321;28;20035;-78
2022/09/21 11:55:24;;;;;;;2.38;0.70;;;23.60;54.60;;;;;;5072677;28;20038;-78
2022/09/21 11:58:17;;;;;;;1.00;0.63;;;23.70;55.80;;;;;;5055976;28;20594;-78
2022/09/21 12:01:16;;;;;;;8.15;1.10;;;23.90;55.00;;;;;;5057206;28;20505;-78
2022/09/21 12:04:09;;;;;;;5.13;0.90;;;24.20;54.70;;;;;;5056826;28;20028;-79
2022/09/21 12:06:44;;;;;;;2.42;0.88;;;24.50;53.50;;;;;;5076742;28;20032;-79
2022/09/21 12:09:48;;;;;;;3.33;0.50;;;24.70;53.80;;;;;;5074688;28;20676;-78
2022/09/21 12:12:16;;;;;;;3.75;0.75;;;24.90;51.90;;;;;;5051730;28;20032;-79
2022/09/21 12:15:29;;;;;;;2.08;0.60;;;25.10;53.30;;;;;;5057662;28;20095;-78
2022/09/21 12:18:31;;;;;;;1.58;0.40;;;25.10;51.40;;;;;;4982838;28;20038;-79
2022/09/21 12:21:02;;;;;;;3.60;0.50;;;25.00;51.80;;;;;;4982328;28;20062;-79
2022/09/21 12:23:37;;;;;;;2.30;0.40;;;25.20;52.80;;;;;;4962548;28;20074;-78
2022/09/21 12:26:03;;;;;;;1.35;0.50;;;25.40;52.60;;;;;;4932566;28;20137;-77
2022/09/21 12:28:30;;;;;;;3.63;0.43;;;25.40;52.20;;;;;;4957197;28;20133;-77
2022/09/21 12:31:01;;;;;;;0.57;0.47;;;25.50;52.20;;;;;;4964487;28;20105;-78
2022/09/21 12:33:49;;;;;;;0.80;0.22;;;25.50;51.50;;;;;;4975760;28;20125;-78
2022/09/21 12:36:19;;;;;;;1.52;0.40;;;25.60;49.60;;;;;;4977528;28;20177;-78
2022/09/21 12:38:53;;;;;;;7.57;1.08;;;25.60;50.80;;;;;;4960825;28;20366;-78
2022/09/21 12:41:45;;;;;;;2.10;0.60;;;25.70;50.50;;;;;;4975827;28;20198;-78
2022/09/21 12:44:16;;;;;;;0.93;0.30;;;25.90;50.40;;;;;;4963115;28;20035;-78
2022/09/21 12:47:10;;;;;;;0.80;0.30;;;26.10;50.40;;;;;;4977635;28;20129;-78
2022/09/21 12:49:42;;;;;;;0.60;0.40;;;26.30;48.10;;;;;;5046536;28;20085;-78
2022/09/21 12:52:07;;;;;;;;;;;26.20;48.30;;;;;;5041087;28;20064;-79
2022/09/21 12:54:55;;;;;;;0.38;0.20;;;26.20;49.00;;;;;;5070629;28;19966;-78
2022/09/21 12:57:33;;;;;;;0.57;0.25;;;26.20;47.80;;;;;;5056105;28;20062;-79
2022/09/21 13:00:21;;;;;;;0.57;0.43;;;26.40;48.90;;;;;;5068831;28;20048;-78
2022/09/21 13:02:52;;;;;;;1.55;0.30;;;26.50;48.30;;;;;;5072193;28;20104;-78
2022/09/21 13:05:26;;;;;;;1.08;0.22;;;26.70;47.70;;;;;;5074016;28;20029;-79
2022/09/21 13:08:24;;;;;;;2.85;0.20;;;26.70;45.40;;;;;;5071017;28;20175;-78
2022/09/21 13:11:00;;;;;;;0.30;0.30;;;26.50;46.10;;;;;;5068835;28;20030;-79
2022/09/21 13:13:42;;;;;;;0.32;0.20;;;26.40;46.60;;;;;;5054511;28;20520;-78
2022/09/21 13:16:30;;;;;;;0.20;0.20;;;26.50;44.70;;;;;;5084599;28;20568;-78
2022/09/21 13:19:20;;;;;;;2.30;0.25;;;26.40;45.90;;;;;;5057633;28;20036;-78